Time;durP1;ratioP1;P1;durP2;ratioP2;P2;SDS_P1;SDS_P2;PMS_P1;PMS_P2;Temp;Humidity;BMP_temperature;BMP_pressure;BME280_temperature;BME280_humidity;BME280_pressure;Samples;Min_cycle;Max_cycle;Signal;HPM_P1;HPM_P2
2023/02/09 00:02:21;;;;;;;13.65;2.87;;;;;;;-6.29;71.57;103187.58;1844022;77;21126;-45
2023/02/09 00:04:50;;;;;;;8.75;4.33;;;;;;;-6.27;71.56;103182.16;1832207;78;21577;-46
2023/02/09 00:07:19;;;;;;;18.75;6.47;;;;;;;-6.27;71.49;103177.03;1832205;78;21035;-47
2023/02/09 00:09:47;;;;;;;6.33;2.83;;;;;;;-6.25;71.41;103174.17;1832544;78;21102;-45
2023/02/09 00:15:03;;;;;;;8.30;4.37;;;;;;;-6.27;71.46;103166.77;1872865;77;21572;-44
2023/02/09 00:17:34;;;;;;;7.60;4.15;;;;;;;-6.25;71.37;103170.33;1872655;76;21526;-50
2023/02/09 00:20:06;;;;;;;13.25;8.00;;;;;;;-6.26;71.40;103169.81;1872719;77;21122;-44
2023/02/09 00:22:34;;;;;;;15.93;7.35;;;;;;;-6.26;71.34;103172.37;1869865;77;21147;-44
2023/02/09 00:25:03;;;;;;;11.78;6.25;;;;;;;-6.26;71.37;103171.09;1869796;77;21036;-46
2023/02/09 00:27:34;;;;;;;14.75;7.10;;;;;;;-6.24;71.34;103172.49;1872679;77;21110;-44
2023/02/09 00:30:02;;;;;;;11.93;6.33;;;;;;;-6.25;71.35;103163.92;1872707;77;21036;-45
2023/02/09 00:32:32;;;;;;;6.75;4.28;;;;;;;-6.26;71.31;103171.09;1869870;76;21131;-45
2023/02/09 00:35:00;;;;;;;16.40;8.80;;;;;;;-6.29;71.30;103162.30;1872816;77;21008;-47
2023/02/09 00:37:29;;;;;;;12.20;5.47;;;;;;;-6.30;71.30;103165.27;1872723;77;21036;-45
2023/02/09 00:39:58;;;;;;;11.88;5.15;;;;;;;-6.32;71.33;103164.28;1872634;76;21415;-45
2023/02/09 00:42:26;;;;;;;9.85;4.33;;;;;;;-6.33;71.32;103164.17;1869914;77;21008;-46
2023/02/09 00:44:55;;;;;;;6.95;3.77;;;;;;;-6.34;71.33;103169.70;1872352;76;21052;-48
2023/02/09 00:47:24;;;;;;;12.63;5.03;;;;;;;-6.36;71.35;103163.58;1872669;77;21358;-51
2023/02/09 00:49:52;;;;;;;7.85;3.95;;;;;;;-6.36;71.40;103162.30;1872716;76;21040;-44
2023/02/09 00:52:21;;;;;;;12.53;5.62;;;;;;;-6.36;71.36;103169.98;1869712;77;21060;-46
2023/02/09 00:54:49;;;;;;;8.80;4.30;;;;;;;-6.38;71.41;103165.15;1872774;77;20992;-47
2023/02/09 00:57:18;;;;;;;9.75;3.15;;;;;;;-6.37;71.37;103160.50;1872682;77;21126;-44
2023/02/09 00:59:47;;;;;;;9.55;4.67;;;;;;;-6.40;71.43;103152.59;1872625;76;21150;-50
2023/02/09 01:02:16;;;;;;;12.03;5.42;;;;;;;-6.40;71.45;103157.72;1872691;77;21110;-47
2023/02/09 01:04:44;;;;;;;11.70;3.67;;;;;;;-6.38;71.41;103161.30;1835030;77;21106;-45
2023/02/09 01:07:13;;;;;;;11.50;6.75;;;;;;;-6.41;71.42;103161.08;1832507;78;21542;-46
2023/02/09 01:09:42;;;;;;;10.55;4.03;;;;;;;-6.38;71.43;103157.83;1832475;78;21084;-45
2023/02/09 01:12:10;;;;;;;6.72;3.15;;;;;;;-6.37;71.37;103165.63;1832497;78;21052;-45
2023/02/09 01:14:39;;;;;;;9.58;3.83;;;;;;;-6.37;71.35;103177.56;1835204;77;21129;-47
2023/02/09 01:17:08;;;;;;;8.60;3.87;;;;;;;-6.38;71.34;103177.97;1832483;77;21047;-50
2023/02/09 01:19:37;;;;;;;9.73;5.72;;;;;;;-6.38;71.30;103181.81;1832396;78;21143;-50
2023/02/09 01:22:05;;;;;;;8.83;3.30;;;;;;;-6.38;71.33;103175.41;1832612;78;21055;-48
2023/02/09 01:24:35;;;;;;;5.97;3.33;;;;;;;-6.39;71.32;103173.61;1835340;77;21146;-51
2023/02/09 01:27:03;;;;;;;9.93;4.37;;;;;;;-6.41;71.29;103168.77;1832700;78;21150;-46
2023/02/09 01:29:32;;;;;;;14.60;6.95;;;;;;;-6.44;71.28;103164.30;1832462;78;21539;-48
2023/02/09 01:32:01;;;;;;;6.30;3.65;;;;;;;-6.44;71.32;103163.42;1832389;78;21051;-47
2023/02/09 01:34:29;;;;;;;7.40;3.80;;;;;;;-6.47;71.31;103164.11;1835264;77;21048;-46
2023/02/09 01:36:58;;;;;;;13.50;5.65;;;;;;;-6.48;71.29;103168.72;1832502;78;21489;-44
2023/02/09 01:39:27;;;;;;;15.05;6.25;;;;;;;-6.49;71.27;103168.61;1832482;78;21048;-45
2023/02/09 01:41:55;;;;;;;7.95;4.40;;;;;;;-6.53;71.30;103162.37;1832472;78;21083;-49
2023/02/09 01:44:27;;;;;;;13.78;6.22;;;;;;;-6.53;71.27;103166.63;1835059;77;21122;-48
2023/02/09 01:46:55;;;;;;;12.58;5.42;;;;;;;-6.55;71.28;103163.06;1832487;78;21138;-48
2023/02/09 01:49:27;;;;;;;7.03;3.50;;;;;;;-6.56;71.22;103169.00;1832451;78;21109;-47
2023/02/09 01:52:01;;;;;;;7.42;2.65;;;;;;;-6.57;71.26;103169.77;1832484;78;21105;-50
2023/02/09 01:54:35;;;;;;;7.05;2.62;;;;;;;-6.57;71.27;103176.17;1835195;77;21063;-45
2023/02/09 01:57:10;;;;;;;11.22;5.28;;;;;;;-6.60;71.27;103167.89;1832593;78;21099;-46
2023/02/09 01:59:42;;;;;;;10.98;3.77;;;;;;;-6.58;71.20;103171.81;1832478;78;21566;-45
2023/02/09 02:02:11;;;;;;;2.75;1.62;;;;;;;-6.64;71.20;103183.44;1832481;78;21019;-49
2023/02/09 02:04:43;;;;;;;5.37;2.85;;;;;;;-6.65;71.21;103185.49;1835169;77;21506;-48
2023/02/09 02:07:21;;;;;;;6.25;3.90;;;;;;;-6.65;71.22;103188.05;1832435;78;21043;-46
2023/02/09 02:09:50;;;;;;;1.05;0.80;;;;;;;-6.66;71.16;103192.70;1832153;78;21051;-48
2023/02/09 02:12:19;;;;;;;5.55;2.67;;;;;;;-6.69;71.19;103198.88;1832599;78;21558;-46
2023/02/09 02:14:48;;;;;;;12.33;6.28;;;;;;;-6.70;71.24;103200.92;1835368;77;21518;-48
2023/02/09 02:17:41;;;;;;;7.30;3.92;;;;;;;-6.69;71.20;103204.41;1832581;78;21510;-45
2023/02/09 02:20:30;;;;;;;13.85;5.00;;;;;;;-6.71;71.18;103206.84;1832685;77;21848;-45
2023/02/09 02:23:05;;;;;;;3.98;2.30;;;;;;;-6.73;71.15;103207.14;1832687;78;21518;-49
2023/02/09 02:26:11;;;;;;;5.28;3.22;;;;;;;-6.75;71.12;103212.55;1800534;78;21573;-45
2023/02/09 02:28:54;;;;;;;7.65;2.62;;;;;;;-6.76;71.13;103220.12;1775617;79;21123;-46
2023/02/09 02:31:31;;;;;;;9.28;3.67;;;;;;;-6.79;71.13;103214.36;1775609;80;21090;-48
2023/02/09 02:34:18;;;;;;;3.45;1.77;;;;;;;-6.82;71.10;103214.16;1812376;78;21047;-45
2023/02/09 02:36:55;;;;;;;7.95;2.72;;;;;;;-6.86;71.07;103216.89;1835189;77;21103;-47
2023/02/09 02:39:32;;;;;;;3.95;0.80;;;;;;;-6.88;71.06;103220.11;1831421;78;21052;-45
2023/02/09 02:45:05;;;;;;;8.33;4.12;;;;;;;-6.91;71.12;103226.31;1832491;78;21040;-47
2023/02/09 02:47:36;;;;;;;3.40;1.75;;;;;;;-6.94;71.07;103222.23;1855366;76;21047;-46
2023/02/09 02:50:08;;;;;;;11.85;4.65;;;;;;;-6.99;71.06;103217.68;1872725;76;21068;-48
2023/02/09 02:52:40;;;;;;;10.55;5.53;;;;;;;-6.99;71.08;103227.92;1871850;76;21628;-49
2023/02/09 02:55:12;;;;;;;12.15;4.83;;;;;;;-7.01;71.03;103221.80;1872821;77;21098;-47
2023/02/09 02:57:42;;;;;;;10.90;3.27;;;;;;;-7.02;71.04;103231.53;1869914;77;21107;-46
2023/02/09 03:00:14;;;;;;;15.20;6.05;;;;;;;-7.04;70.99;103227.09;1872830;77;21173;-46
2023/02/09 03:02:46;;;;;;;10.10;5.08;;;;;;;-7.06;70.96;103234.66;1872796;77;21490;-47
2023/02/09 03:05:16;;;;;;;7.97;4.17;;;;;;;-7.10;70.85;103238.14;1872062;76;21101;-46
2023/02/09 03:07:45;;;;;;;4.45;2.83;;;;;;;-7.17;70.86;103234.27;1870427;77;21016;-47
2023/02/09 03:10:28;;;;;;;7.10;2.52;;;;;;;-7.18;70.86;103237.59;1872686;77;21078;-46
2023/02/09 03:13:29;;;;;;;8.75;4.20;;;;;;;-7.19;70.86;103238.39;1872884;76;21032;-49
2023/02/09 03:16:18;;;;;;;11.68;5.50;;;;;;;-7.23;70.80;103236.35;1832610;76;21479;-46
2023/02/09 03:18:59;;;;;;;7.67;3.72;;;;;;;-7.25;70.74;103234.08;1871222;75;21074;-47
2023/02/09 03:21:51;;;;;;;4.25;2.52;;;;;;;-7.31;70.67;103234.52;1882184;76;21494;-47
2023/02/09 03:24:40;;;;;;;7.58;3.92;;;;;;;-7.38;70.68;103239.59;1848228;76;21051;-47
2023/02/09 03:27:17;;;;;;;5.75;3.05;;;;;;;-7.40;70.71;103241.11;1841829;76;21039;-48
2023/02/09 03:29:51;;;;;;;10.08;3.87;;;;;;;-7.38;70.69;103242.52;1850458;77;21140;-46
2023/02/09 03:32:22;;;;;;;5.10;2.62;;;;;;;-7.46;70.65;103238.11;1850547;77;21171;-49
2023/02/09 03:34:51;;;;;;;3.33;1.72;;;;;;;-7.48;70.59;103242.63;1850572;77;21580;-49
2023/02/09 03:37:20;;;;;;;6.42;2.65;;;;;;;-7.52;70.54;103246.98;1850580;77;21667;-45
2023/02/09 03:39:49;;;;;;;6.97;3.83;;;;;;;-7.58;70.48;103247.41;1844498;76;21059;-45
2023/02/09 03:42:18;;;;;;;15.20;4.28;;;;;;;-7.65;70.40;103256.72;1841723;78;21127;-46
2023/02/09 03:44:46;;;;;;;3.87;2.85;;;;;;;-7.76;70.42;103250.78;1841810;78;21113;-49
2023/02/09 03:47:15;;;;;;;1.67;1.57;;;;;;;-7.84;70.44;103255.31;1841612;77;21047;-51
2023/02/09 03:49:44;;;;;;;11.28;3.40;;;;;;;-7.94;70.54;103256.65;1844190;76;21128;-50
2023/02/09 03:52:14;;;;;;;15.48;4.55;;;;;;;-8.02;70.62;103256.06;1841569;78;21050;-51
2023/02/09 03:54:43;;;;;;;4.10;3.17;;;;;;;-8.10;70.69;103266.06;1841713;78;21105;-47
2023/02/09 03:57:12;;;;;;;13.05;4.67;;;;;;;-8.15;70.72;103264.45;1841584;78;21043;-49
2023/02/09 03:59:41;;;;;;;11.03;3.60;;;;;;;-8.19;70.75;103272.66;1844265;76;21023;-49
2023/02/09 04:02:10;;;;;;;5.37;2.40;;;;;;;-8.20;70.79;103277.64;1841449;78;21035;-49
2023/02/09 04:04:39;;;;;;;8.70;3.60;;;;;;;-8.20;70.79;103278.92;1841563;78;21075;-49
2023/02/09 04:07:07;;;;;;;6.12;2.67;;;;;;;-8.19;70.78;103284.52;1841557;78;21047;-49
2023/02/09 04:09:37;;;;;;;4.67;1.98;;;;;;;-8.19;70.78;103283.25;1844171;76;21153;-47
2023/02/09 04:12:07;;;;;;;8.00;4.28;;;;;;;-8.18;70.84;103291.05;1841581;78;21094;-49
2023/02/09 04:14:35;;;;;;;15.95;6.15;;;;;;;-8.16;70.87;103300.11;1841511;77;21054;-51
2023/02/09 04:17:04;;;;;;;3.60;3.22;;;;;;;-8.15;70.90;103305.36;1841631;78;21027;-49
2023/02/09 04:19:32;;;;;;;4.70;1.62;;;;;;;-8.10;70.93;103308.65;1840100;78;21530;-50
2023/02/09 04:22:01;;;;;;;6.95;3.80;;;;;;;-8.04;70.86;103315.51;1835207;77;21141;-52
2023/02/09 04:24:30;;;;;;;7.17;3.30;;;;;;;-8.04;70.86;103312.95;1832535;78;21040;-49
2023/02/09 04:26:59;;;;;;;11.38;6.10;;;;;;;-8.01;70.84;103320.88;1832426;78;21035;-50
2023/02/09 04:29:28;;;;;;;7.62;3.05;;;;;;;-7.99;70.81;103319.33;1835217;77;21071;-51
2023/02/09 04:31:57;;;;;;;8.93;4.28;;;;;;;-7.95;70.76;103321.34;1832536;78;21099;-52
2023/02/09 04:34:25;;;;;;;7.08;3.58;;;;;;;-7.97;70.74;103321.61;1832456;78;21043;-51
2023/02/09 04:36:54;;;;;;;8.60;4.08;;;;;;;-7.96;70.76;103324.69;1832517;78;21209;-49
2023/02/09 04:39:23;;;;;;;3.35;2.90;;;;;;;-7.94;70.80;103325.70;1835242;77;21048;-49
2023/02/09 04:41:51;;;;;;;5.25;2.08;;;;;;;-7.91;70.76;103336.18;1832479;78;21048;-49
2023/02/09 04:44:20;;;;;;;15.68;3.12;;;;;;;-7.89;70.70;103329.52;1832529;78;21039;-50
2023/02/09 04:46:48;;;;;;;10.50;4.05;;;;;;;-7.85;70.70;103335.77;1832552;78;21113;-50
2023/02/09 04:49:17;;;;;;;9.28;4.22;;;;;;;-7.83;70.65;103341.48;1835154;77;21147;-49
2023/02/09 04:51:46;;;;;;;7.80;4.05;;;;;;;-7.81;70.63;103343.77;1832465;78;21051;-48
2023/02/09 04:54:14;;;;;;;5.78;4.67;;;;;;;-7.78;70.71;103344.02;1832423;78;21023;-48
2023/02/09 04:56:43;;;;;;;7.58;4.87;;;;;;;-7.74;70.78;103349.39;1832620;78;21109;-50
2023/02/09 05:01:58;;;;;;;8.03;4.37;;;;;;;-7.66;70.72;103353.02;1832496;78;21490;-47
2023/02/09 05:04:27;;;;;;;12.15;6.33;;;;;;;-7.63;70.66;103356.23;1832504;78;21115;-45
2023/02/09 05:06:55;;;;;;;2.52;1.82;;;;;;;-7.61;70.65;103355.95;1832481;78;21125;-47
2023/02/09 05:09:24;;;;;;;7.05;3.17;;;;;;;-7.56;70.57;103355.93;1832588;78;21133;-46
2023/02/09 05:11:52;;;;;;;5.83;2.87;;;;;;;-7.52;70.42;103346.42;1835150;77;21044;-48
2023/02/09 05:14:21;;;;;;;9.43;4.25;;;;;;;-7.52;70.41;103354.47;1832522;78;21024;-50
2023/02/09 05:16:50;;;;;;;7.22;3.37;;;;;;;-7.52;70.41;103350.27;1832512;78;21102;-47
2023/02/09 05:19:18;;;;;;;7.17;3.52;;;;;;;-7.49;70.37;103353.03;1832473;78;21467;-51
2023/02/09 05:21:47;;;;;;;3.92;2.17;;;;;;;-7.45;70.30;103351.23;1835152;77;21127;-50
2023/02/09 05:24:16;;;;;;;4.80;2.27;;;;;;;-7.45;70.21;103355.08;1832640;78;21126;-50
2023/02/09 05:26:44;;;;;;;13.43;4.97;;;;;;;-7.40;70.20;103362.70;1832505;78;21486;-48
2023/02/09 05:29:13;;;;;;;4.60;2.50;;;;;;;-7.33;70.25;103368.30;1866591;77;21110;-51
2023/02/09 05:31:41;;;;;;;3.02;2.70;;;;;;;-7.29;70.20;103368.64;1872575;76;21024;-47
2023/02/09 05:34:10;;;;;;;3.40;2.15;;;;;;;-7.30;70.06;103368.52;1872655;77;21028;-49
2023/02/09 05:36:38;;;;;;;4.55;1.85;;;;;;;-7.28;70.01;103365.71;1872729;77;21032;-49
2023/02/09 05:39:07;;;;;;;10.08;2.80;;;;;;;-7.26;69.91;103366.72;1869796;77;21119;-48
2023/02/09 05:44:23;;;;;;;7.17;3.25;;;;;;;-7.24;69.73;103366.44;1872536;76;21471;-47
2023/02/09 05:46:51;;;;;;;11.60;3.98;;;;;;;-7.25;69.64;103360.44;1872872;77;21121;-51
2023/02/09 05:49:20;;;;;;;6.12;2.77;;;;;;;-7.22;69.60;103364.49;1857042;77;21130;-46
2023/02/09 05:51:48;;;;;;;6.95;3.75;;;;;;;-7.16;69.55;103357.66;1832587;78;21044;-48
2023/02/09 05:54:17;;;;;;;7.25;3.35;;;;;;;-7.13;69.32;103359.18;1832626;78;21075;-45
2023/02/09 05:56:46;;;;;;;7.42;3.98;;;;;;;-7.06;69.31;103359.27;1832678;78;21142;-46
2023/02/09 05:59:14;;;;;;;9.95;2.87;;;;;;;-6.99;69.14;103353.80;1835313;77;21003;-46
2023/02/09 06:01:43;;;;;;;17.85;6.35;;;;;;;-6.83;69.11;103355.44;1832581;78;21047;-47
2023/02/09 06:04:12;;;;;;;9.30;4.08;;;;;;;-6.63;68.90;103356.91;1832581;78;21466;-48
2023/02/09 06:06:40;;;;;;;12.00;4.58;;;;;;;-6.43;68.64;103357.48;1832587;78;21016;-47
2023/02/09 06:09:09;;;;;;;5.85;3.67;;;;;;;-6.23;68.36;103352.11;1832541;78;21039;-46
2023/02/09 06:11:38;;;;;;;13.62;5.00;;;;;;;-6.04;68.09;103353.42;1835450;77;21440;-46
2023/02/09 06:14:07;;;;;;;6.78;4.28;;;;;;;-5.75;67.90;103351.99;1832575;78;21056;-48
2023/02/09 06:16:35;;;;;;;7.20;4.95;;;;;;;-5.52;67.21;103349.72;1832609;78;21019;-49
2023/02/09 06:19:04;;;;;;;6.95;3.72;;;;;;;-5.08;66.95;103353.13;1832704;78;21106;-49
2023/02/09 06:21:33;;;;;;;3.90;2.67;;;;;;;-4.36;65.75;103359.53;1835210;77;21075;-51
2023/02/09 06:24:01;;;;;;;7.22;2.55;;;;;;;-3.63;64.58;103357.21;1832631;78;21135;-50
2023/02/09 06:26:30;;;;;;;12.10;4.67;;;;;;;-3.04;63.39;103360.31;1832678;78;21529;-48
2023/02/09 06:28:59;;;;;;;5.20;3.02;;;;;;;-2.39;62.68;103361.94;1835258;77;21482;-50
2023/02/09 06:31:27;;;;;;;8.80;3.75;;;;;;;-1.98;61.51;103354.72;1832560;77;21135;-47
2023/02/09 06:33:56;;;;;;;7.55;4.67;;;;;;;-1.59;60.83;103352.57;1832613;78;21043;-50
2023/02/09 06:36:25;;;;;;;9.25;4.80;;;;;;;-1.59;59.45;103358.54;1832693;77;21051;-49
2023/02/09 06:38:54;;;;;;;7.60;3.90;;;;;;;-1.59;59.45;103358.54;1835265;77;21047;-49
2023/02/09 06:41:22;;;;;;;12.45;5.87;;;;;;;-1.15;58.61;103355.63;1832577;78;21121;-49
2023/02/09 06:43:51;;;;;;;5.78;3.75;;;;;;;-0.71;58.53;103354.39;1832584;78;21016;-47
2023/02/09 06:46:19;;;;;;;2.92;2.05;;;;;;;-0.80;57.61;103351.81;1832663;78;21506;-47
2023/02/09 06:48:48;;;;;;;10.15;3.52;;;;;;;-1.37;57.60;103364.85;1835152;77;21094;-47
2023/02/09 06:51:17;;;;;;;7.33;2.72;;;;;;;-2.03;58.12;103364.81;1832617;78;21092;-49
2023/02/09 06:53:46;;;;;;;10.32;4.28;;;;;;;-2.36;58.70;103369.87;1832568;78;21137;-50
2023/02/09 06:56:14;;;;;;;9.28;4.10;;;;;;;-2.90;59.09;103368.46;1832586;78;21048;-48
2023/02/09 06:58:43;;;;;;;8.85;4.67;;;;;;;-2.90;59.09;103368.46;1835373;77;21126;-46
2023/02/09 07:01:16;;;;;;;14.68;7.53;;;;;;;-2.83;59.62;103369.31;1832568;78;21129;-50
2023/02/09 07:03:45;;;;;;;10.63;5.20;;;;;;;-2.80;59.58;103366.05;1832705;78;21023;-48
2023/02/09 07:06:17;;;;;;;8.90;5.08;;;;;;;-2.73;59.67;103372.93;1832679;78;21043;-50
2023/02/09 07:08:46;;;;;;;3.52;2.47;;;;;;;-2.89;59.01;103375.83;1833434;77;21097;-49
2023/02/09 07:11:17;;;;;;;5.15;2.30;;;;;;;-2.96;59.42;103378.42;1833173;77;21538;-49
2023/02/09 07:13:46;;;;;;;10.53;3.52;;;;;;;-2.92;59.58;103375.22;1832542;78;21564;-47
2023/02/09 07:16:15;;;;;;;15.05;6.37;;;;;;;-2.78;59.62;103374.34;1832585;78;21055;-47
2023/02/09 07:18:44;;;;;;;10.80;4.90;;;;;;;-2.79;59.00;103375.13;1832568;78;21092;-50
2023/02/09 07:21:17;;;;;;;18.32;4.30;;;;;;;-2.61;58.57;103373.14;1835289;77;21064;-49
2023/02/09 07:23:45;;;;;;;4.90;3.40;;;;;;;-2.61;58.57;103307.37;1832499;77;21052;-49
2023/02/09 07:26:16;;;;;;;6.72;2.70;;;;;;;-2.27;58.18;103366.02;1832548;78;21505;-48
2023/02/09 07:28:45;;;;;;;18.67;6.90;;;;;;;-2.31;57.47;103376.97;1858616;77;21012;-47
2023/02/09 07:31:15;;;;;;;3.72;2.22;;;;;;;-2.40;57.58;103374.38;1872811;77;21020;-46
2023/02/09 07:33:44;;;;;;;4.22;2.22;;;;;;;-2.01;57.35;103376.11;1872838;76;21098;-51
2023/02/09 07:36:15;;;;;;;9.93;3.45;;;;;;;-1.87;57.01;103377.26;1872805;77;21040;-51
2023/02/09 07:38:44;;;;;;;19.27;4.28;;;;;;;-1.82;56.22;103371.95;1869943;77;21032;-50
2023/02/09 07:41:18;;;;;;;6.75;3.02;;;;;;;-1.91;56.43;103380.08;1872667;77;21020;-48
2023/02/09 07:43:48;;;;;;;6.42;3.62;;;;;;;-1.27;55.60;103379.13;1872705;77;21102;-52
2023/02/09 07:46:19;;;;;;;2.35;1.52;;;;;;;-0.78;54.36;103377.36;1872767;76;21474;-47
2023/02/09 07:48:49;;;;;;;9.33;3.83;;;;;;;-1.01;54.67;103375.33;1869839;77;21020;-48
2023/02/09 07:51:24;;;;;;;14.85;5.92;;;;;;;-0.21;53.02;103384.44;1872682;76;21155;-47
2023/02/09 07:53:52;;;;;;;16.55;6.40;;;;;;;-0.18;53.51;103382.00;1872801;76;21196;-48
2023/02/09 07:56:22;;;;;;;11.08;4.72;;;;;;;-0.07;54.21;103392.46;1872716;77;21040;-46
2023/02/09 07:58:51;;;;;;;8.15;3.33;;;;;;;-0.20;53.71;103391.41;1869792;77;21024;-48
2023/02/09 08:01:19;;;;;;;12.15;5.30;;;;;;;-0.08;52.48;103385.91;1846487;76;21114;-49
2023/02/09 08:03:50;;;;;;;10.98;4.75;;;;;;;0.87;50.30;103382.87;1832516;78;21121;-48
2023/02/09 08:06:30;;;;;;;8.75;4.45;;;;;;;1.06;49.73;103387.14;1832650;78;21039;-49
2023/02/09 08:09:01;;;;;;;6.45;3.40;;;;;;;1.96;49.24;103386.47;1835164;77;21121;-47
2023/02/09 08:11:31;;;;;;;16.60;4.90;;;;;;;2.96;48.73;103388.86;1832534;78;21352;-48
2023/02/09 08:14:03;;;;;;;7.55;2.67;;;;;;;3.65;47.32;103389.84;1833523;77;21146;-48
2023/02/09 08:16:33;;;;;;;8.88;3.80;;;;;;;4.21;46.86;103385.52;1856416;77;21118;-48
2023/02/09 08:19:05;;;;;;;12.45;5.08;;;;;;;4.66;45.84;103385.92;1872705;76;21016;-49
2023/02/09 08:21:37;;;;;;;7.90;3.22;;;;;;;4.82;45.23;103382.89;1872448;76;21036;-50
2023/02/09 08:24:08;;;;;;;8.15;3.62;;;;;;;4.98;44.81;103379.86;1872634;75;21088;-47
2023/02/09 08:30:19;;;;;;;7.20;3.05;;;;;;;5.17;43.73;103379.03;1872650;77;21055;-47
2023/02/09 08:36:30;;;;;;;8.00;3.58;;;;;;;5.71;43.16;103378.61;1869882;77;21100;-50
2023/02/09 08:42:40;;;;;;;5.75;3.10;;;;;;;6.01;41.44;103364.48;1863954;77;21094;-47
2023/02/09 08:45:09;;;;;;;12.85;3.75;;;;;;;6.23;41.60;103370.19;1872677;76;21090;-47
2023/02/09 08:47:37;;;;;;;8.00;4.40;;;;;;;6.18;41.09;103365.75;1872693;77;21033;-45
2023/02/09 08:50:07;;;;;;;18.12;5.00;;;;;;;6.16;40.38;103370.08;1872713;77;21079;-46
2023/02/09 08:52:35;;;;;;;9.88;5.45;;;;;;;6.19;39.94;103362.27;1869864;77;21008;-48
2023/02/09 08:55:05;;;;;;;9.63;3.40;;;;;;;6.29;40.05;103366.39;1872919;76;21146;-45
2023/02/09 08:57:33;;;;;;;9.83;4.53;;;;;;;6.34;40.04;103363.45;1872777;77;21016;-46
2023/02/09 09:00:03;;;;;;;10.25;3.37;;;;;;;6.50;39.63;103359.42;1872684;77;21039;-45
2023/02/09 09:02:32;;;;;;;5.55;3.25;;;;;;;6.63;39.88;103349.64;1862287;77;21055;-46
2023/02/09 09:05:01;;;;;;;3.50;2.42;;;;;;;6.49;38.08;103354.62;1869764;77;21487;-47
2023/02/09 09:07:30;;;;;;;9.58;3.92;;;;;;;6.17;38.44;103343.05;1872947;77;21152;-46
2023/02/09 09:09:58;;;;;;;10.93;5.20;;;;;;;6.21;38.42;103340.50;1872733;77;21044;-44
2023/02/09 09:12:29;;;;;;;13.30;4.67;;;;;;;6.36;38.46;103347.34;1872671;77;21118;-48
2023/02/09 09:14:57;;;;;;;11.70;5.03;;;;;;;6.60;38.56;103339.53;1869653;76;21514;-46
2023/02/09 09:17:27;;;;;;;9.68;5.05;;;;;;;6.92;38.72;103333.16;1872699;77;21118;-49
2023/02/09 09:19:55;;;;;;;13.45;5.70;;;;;;;7.25;37.79;103343.77;1872690;76;21540;-45
2023/02/09 09:22:24;;;;;;;10.28;5.37;;;;;;;7.35;38.05;103336.92;1849333;76;21106;-49
2023/02/09 09:24:54;;;;;;;11.03;4.08;;;;;;;7.43;36.99;103337.95;1880303;76;21526;-48
2023/02/09 09:27:22;;;;;;;6.65;3.35;;;;;;;7.17;36.88;103332.25;1876292;76;21028;-49
2023/02/09 09:29:51;;;;;;;11.35;5.75;;;;;;;7.12;36.65;103337.88;1859611;77;21045;-48
2023/02/09 09:32:23;;;;;;;7.72;4.50;;;;;;;7.15;36.79;103333.97;1859459;77;21084;-48
2023/02/09 09:34:57;;;;;;;8.00;4.90;;;;;;;7.39;36.63;103328.68;1875907;76;21145;-49
2023/02/09 09:37:26;;;;;;;7.12;3.42;;;;;;;7.65;36.64;103328.63;1891641;75;21093;-49
2023/02/09 09:39:55;;;;;;;10.15;4.67;;;;;;;7.61;36.19;103321.59;1871653;75;21463;-51
2023/02/09 09:42:26;;;;;;;13.20;6.03;;;;;;;7.58;36.34;103316.72;1859784;77;21538;-47
2023/02/09 09:44:56;;;;;;;14.13;6.72;;;;;;;7.86;36.27;103312.77;1861790;76;21047;-48
2023/02/09 09:47:27;;;;;;;10.58;4.35;;;;;;;8.13;36.15;103305.66;1859775;77;21534;-47
2023/02/09 09:49:56;;;;;;;11.40;5.53;;;;;;;8.18;35.95;103302.67;1857894;77;21067;-48
2023/02/09 09:52:42;;;;;;;8.45;3.08;;;;;;;8.24;35.87;103304.04;1859608;77;21113;-51
2023/02/09 09:55:14;;;;;;;19.25;7.08;;;;;;;8.30;35.68;103300.64;1861845;76;21566;-51
2023/02/09 09:57:44;;;;;;;7.67;3.87;;;;;;;8.21;36.02;103290.03;1858837;77;21124;-50
2023/02/09 10:00:25;;;;;;;13.40;5.78;;;;;;;8.60;35.41;103295.30;1859746;77;21133;-51
2023/02/09 10:02:54;;;;;;;9.65;3.98;;;;;;;8.68;35.81;103289.23;1861748;76;21112;-44
2023/02/09 10:05:25;;;;;;;4.67;2.37;;;;;;;8.49;34.69;103285.55;1890482;76;21052;-42
2023/02/09 10:08:11;;;;;;;6.10;3.52;;;;;;;8.34;34.90;103285.77;1891616;76;21035;-43
2023/02/09 10:10:55;;;;;;;5.33;2.65;;;;;;;8.15;34.86;103282.06;1836092;75;21164;-42
2023/02/09 10:13:26;;;;;;;7.03;4.12;;;;;;;7.61;34.48;103280.94;1891247;75;21531;-42
2023/02/09 10:15:56;;;;;;;7.58;3.92;;;;;;;7.28;34.83;103280.89;1877592;76;21036;-42
2023/02/09 10:18:28;;;;;;;7.08;3.25;;;;;;;6.93;34.87;103274.69;1889802;76;21039;-42
2023/02/09 10:21:06;;;;;;;9.55;3.80;;;;;;;6.76;34.87;103280.92;1891445;76;21027;-45
2023/02/09 10:23:44;;;;;;;8.38;4.78;;;;;;;6.96;34.95;103272.09;1870152;76;21459;-46
2023/02/09 10:26:18;;;;;;;6.47;3.67;;;;;;;6.89;34.92;103269.36;1860155;77;21047;-45
2023/02/09 10:28:52;;;;;;;4.15;2.52;;;;;;;7.43;35.38;103275.44;1872762;77;21483;-45
2023/02/09 10:31:27;;;;;;;3.70;2.17;;;;;;;7.27;34.50;103266.05;1871627;76;21560;-45
2023/02/09 10:34:10;;;;;;;4.28;2.42;;;;;;;7.09;34.77;103260.08;1872711;77;21004;-46
2023/02/09 10:36:54;;;;;;;6.42;3.27;;;;;;;6.79;34.58;103265.70;1872840;77;21055;-45
2023/02/09 10:39:29;;;;;;;;;;;;;;;6.61;35.15;103261.02;1823121;76;21537;-45
2023/02/09 10:42:19;;;;;;;12.78;2.72;;;;;;;6.57;35.08;103257.47;1872717;77;20107;-45
2023/02/09 10:44:53;;;;;;;11.43;4.08;;;;;;;6.82;35.46;103250.03;1872666;77;21083;-45
2023/02/09 10:47:26;;;;;;;11.33;3.47;;;;;;;7.15;35.37;103257.55;1869993;77;21042;-47
2023/02/09 10:50:09;;;;;;;8.25;3.90;;;;;;;7.20;35.37;103260.25;1859055;77;21038;-45
2023/02/09 10:52:41;;;;;;;7.35;3.80;;;;;;;6.88;35.13;103251.46;1862051;75;21506;-47
2023/02/09 10:55:19;;;;;;;6.42;2.62;;;;;;;6.64;35.64;103254.55;1872683;76;21099;-45
2023/02/09 10:57:48;;;;;;;6.65;2.95;;;;;;;6.78;35.62;103253.45;1872685;77;21442;-45
2023/02/09 11:00:20;;;;;;;5.35;3.00;;;;;;;6.66;35.65;103257.16;1872773;76;21106;-46
2023/02/09 11:02:52;;;;;;;8.20;4.47;;;;;;;6.55;35.54;103251.77;1872809;76;21118;-45
2023/02/09 11:05:23;;;;;;;6.00;4.40;;;;;;;6.56;35.85;103250.89;1872662;77;21098;-46
2023/02/09 11:08:07;;;;;;;10.32;4.28;;;;;;;6.55;35.76;103255.25;1872675;77;21044;-45
2023/02/09 11:10:39;;;;;;;6.65;4.08;;;;;;;6.50;35.87;103258.20;1872360;76;21064;-42
2023/02/09 11:13:23;;;;;;;7.78;4.42;;;;;;;6.29;36.09;103253.87;1842007;75;21046;-43
2023/02/09 11:16:22;;;;;;;6.97;3.85;;;;;;;6.30;36.28;103249.11;1841565;78;21057;-43
2023/02/09 11:19:00;;;;;;;7.05;4.20;;;;;;;6.01;36.08;103246.79;1841535;77;21450;-43
2023/02/09 11:21:48;;;;;;;7.65;3.42;;;;;;;5.82;36.53;103248.56;1841605;77;21045;-46
2023/02/09 11:24:36;;;;;;;11.43;5.28;;;;;;;5.61;36.58;103247.25;1843485;77;21025;-47
2023/02/09 11:27:07;;;;;;;10.85;4.58;;;;;;;5.60;36.66;103253.31;1860038;77;21040;-45
2023/02/09 11:29:51;;;;;;;8.13;4.67;;;;;;;5.39;36.59;103249.38;1858640;77;21124;-43
2023/02/09 11:32:22;;;;;;;9.75;4.65;;;;;;;4.90;36.76;103256.04;1860181;76;21037;-45
2023/02/09 11:35:00;;;;;;;8.90;3.72;;;;;;;4.59;37.21;103257.89;1859225;77;21701;-43
2023/02/09 11:37:37;;;;;;;8.23;4.58;;;;;;;4.47;37.61;103255.38;1860136;77;21040;-45
2023/02/09 11:40:20;;;;;;;7.70;3.05;;;;;;;4.52;37.86;103262.48;1860074;77;21044;-45
2023/02/09 11:43:11;;;;;;;4.17;2.45;;;;;;;4.50;37.88;103265.48;1860046;77;21553;-47
2023/02/09 11:45:45;;;;;;;8.23;3.72;;;;;;;4.24;38.04;103261.73;1834766;77;21086;-43
2023/02/09 11:48:32;;;;;;;9.40;4.42;;;;;;;4.03;38.12;103263.73;1860021;77;21515;-44
2023/02/09 11:51:18;;;;;;;8.38;4.42;;;;;;;3.78;38.59;103267.33;1860013;77;21025;-43
2023/02/09 11:53:52;;;;;;;9.45;3.67;;;;;;;3.58;38.79;103274.55;1860004;77;21045;-47
2023/02/09 11:56:24;;;;;;;11.25;4.80;;;;;;;3.52;39.25;103272.64;1860147;77;21052;-45
2023/02/09 11:58:58;;;;;;;7.55;3.80;;;;;;;3.26;39.34;103265.32;1860029;76;21028;-43
2023/02/09 12:01:52;;;;;;;6.17;3.12;;;;;;;2.85;40.09;103270.06;1860027;77;21115;-42
2023/02/09 12:04:45;;;;;;;3.02;1.40;;;;;;;2.41;40.55;103269.42;1860258;77;21013;-45
2023/02/09 12:07:19;;;;;;;9.55;3.20;;;;;;;2.14;40.77;103267.62;1860047;77;21083;-43
2023/02/09 12:09:54;;;;;;;4.40;2.37;;;;;;;2.04;40.97;103265.50;1858707;77;21081;-43